createdAt,value
2023-03-15T00:00:44.041Z,50.902409
2023-03-15T00:01:43.988Z,50.902405
2023-03-15T00:02:44.038Z,50.902401
2023-03-15T00:03:44.016Z,50.902412
2023-03-15T00:04:43.963Z,50.902390
2023-03-15T00:05:43.983Z,50.902390
2023-03-15T00:06:43.959Z,50.902409
2023-03-15T00:07:43.962Z,50.902393
2023-03-15T00:08:43.934Z,50.902397
2023-03-15T00:09:43.934Z,50.902416
2023-03-15T00:10:43.948Z,50.902382
2023-03-15T00:11:43.913Z,50.902409
2023-03-15T00:12:43.902Z,50.902405
2023-03-15T00:13:43.903Z,50.902412
2023-03-15T00:14:43.885Z,50.902435
2023-03-15T00:15:43.920Z,50.902397
2023-03-15T00:16:43.877Z,50.902420
2023-03-15T00:17:43.919Z,50.902424
2023-03-15T00:18:43.857Z,50.902397
2023-03-15T00:19:43.883Z,50.902431
2023-03-15T00:20:43.868Z,50.902435
2023-03-15T00:21:43.827Z,50.902470
2023-03-15T00:22:43.828Z,50.902416
2023-03-15T00:23:43.824Z,50.902424
2023-03-15T00:24:43.820Z,50.902435
2023-03-15T00:25:43.820Z,50.902405
2023-03-15T00:26:43.788Z,50.902412
2023-03-15T00:27:43.815Z,50.902424
2023-03-15T00:28:43.789Z,50.902424
2023-03-15T00:29:43.776Z,50.902424
2023-03-15T00:30:43.793Z,50.902451
2023-03-15T00:31:43.784Z,50.902424
2023-03-15T00:32:43.758Z,50.902431
2023-03-15T00:33:43.741Z,50.902458
2023-03-15T00:34:43.761Z,50.902493
2023-03-15T00:35:43.816Z,50.902481
2023-03-15T00:36:43.722Z,50.902462
2023-03-15T00:37:43.717Z,50.902466
2023-03-15T00:38:43.717Z,50.902447
2023-03-15T00:39:43.696Z,50.902416
2023-03-15T00:40:43.717Z,50.902466
2023-03-15T00:41:43.700Z,50.902431
2023-03-15T00:42:43.684Z,50.902431
2023-03-15T00:43:43.664Z,50.902340
2023-03-15T00:44:43.662Z,50.902390
2023-03-15T00:45:43.683Z,50.902386
2023-03-15T00:46:43.661Z,50.902382
2023-03-15T00:47:43.636Z,50.902435
2023-03-15T00:48:43.649Z,50.902405
2023-03-15T00:49:43.623Z,50.902416
2023-03-15T00:50:43.641Z,50.902412
2023-03-15T00:51:43.608Z,50.902401
2023-03-15T00:52:43.601Z,50.902405
2023-03-15T00:53:43.602Z,50.902424
2023-03-15T00:54:43.598Z,50.902355
2023-03-15T00:55:43.607Z,50.902405
2023-03-15T00:56:43.564Z,50.902397
2023-03-15T00:57:43.636Z,50.902374
2023-03-15T00:58:43.553Z,50.902374
2023-03-15T00:59:43.552Z,50.902424
2023-03-15T01:00:43.692Z,50.902428
2023-03-15T01:01:43.555Z,50.902382
2023-03-15T01:02:43.583Z,50.902443
2023-03-15T01:03:43.560Z,50.902435
2023-03-15T01:04:43.504Z,50.902386
2023-03-15T01:05:43.528Z,50.902454
2023-03-15T01:06:43.494Z,50.902466
2023-03-15T01:07:43.484Z,50.902412
2023-03-15T01:08:43.469Z,50.902447
2023-03-15T01:09:43.466Z,50.902431
2023-03-15T01:10:43.505Z,50.902466
2023-03-15T01:11:43.446Z,50.902439
2023-03-15T01:12:43.450Z,50.902405
2023-03-15T01:13:43.441Z,50.902412
2023-03-15T01:14:43.430Z,50.902420
2023-03-15T01:15:43.460Z,50.902412
2023-03-15T01:16:43.407Z,50.902439
2023-03-15T01:17:43.468Z,50.902378
2023-03-15T01:18:43.400Z,50.902393
2023-03-15T01:19:43.415Z,50.902405
2023-03-15T01:20:43.476Z,50.902435
2023-03-15T01:21:43.373Z,50.902363
2023-03-15T01:22:43.366Z,50.902393
2023-03-15T01:23:43.391Z,50.902428
2023-03-15T01:24:43.356Z,50.902443
2023-03-15T01:25:43.377Z,50.902424
2023-03-15T01:26:43.343Z,50.902416
2023-03-15T01:27:43.340Z,50.902390
2023-03-15T01:28:43.346Z,50.902420
2023-03-15T01:29:43.311Z,50.902424
2023-03-15T01:30:43.331Z,50.902416
2023-03-15T01:31:43.350Z,50.902416
2023-03-15T01:32:43.309Z,50.902382
2023-03-15T01:33:43.284Z,50.902370
2023-03-15T01:34:43.769Z,50.902405
2023-03-15T01:35:43.304Z,50.902370
2023-03-15T01:36:43.264Z,50.902374
2023-03-15T01:37:43.243Z,50.902416
2023-03-15T01:38:43.255Z,50.902409
2023-03-15T01:39:43.237Z,50.902420
2023-03-15T01:40:43.250Z,50.902420
2023-03-15T01:41:43.227Z,50.902401
2023-03-15T01:42:43.205Z,50.902393
2023-03-15T01:43:43.204Z,50.902390
2023-03-15T01:44:43.190Z,50.902386
2023-03-15T01:45:43.210Z,50.902370
2023-03-15T01:46:43.200Z,50.902393
2023-03-15T01:47:43.176Z,50.902397
2023-03-15T01:48:43.161Z,50.902405
2023-03-15T01:49:43.152Z,50.902428
2023-03-15T01:50:43.176Z,50.902405
2023-03-15T01:51:43.161Z,50.902401
2023-03-15T01:52:43.155Z,50.902397
2023-03-15T01:53:43.127Z,50.902386
2023-03-15T01:54:43.118Z,50.902401
2023-03-15T01:55:43.287Z,50.902390
2023-03-15T01:56:43.113Z,50.902401
2023-03-15T01:57:43.097Z,50.902386
2023-03-15T01:58:43.097Z,50.902367
2023-03-15T01:59:43.076Z,50.902416
2023-03-15T02:00:43.165Z,50.902405
2023-03-15T02:01:43.064Z,50.902431
2023-03-15T02:02:43.903Z,50.902416
2023-03-15T02:03:43.034Z,50.902405
2023-03-15T02:04:43.105Z,50.902401
2023-03-15T02:05:43.028Z,50.902393
2023-03-15T02:06:43.046Z,50.902393
2023-03-15T02:07:43.008Z,50.902390
2023-03-15T02:08:43.034Z,50.902397
2023-03-15T02:09:42.998Z,50.902401
2023-03-15T02:10:42.986Z,50.902405
2023-03-15T02:11:43.001Z,50.902405
2023-03-15T02:12:42.987Z,50.902386
2023-03-15T02:13:42.967Z,50.902393
2023-03-15T02:14:42.964Z,50.902397
2023-03-15T02:15:42.958Z,50.902378
2023-03-15T02:16:43.046Z,50.902397
2023-03-15T02:17:42.935Z,50.902359
2023-03-15T02:18:42.939Z,50.902431
2023-03-15T02:19:42.919Z,50.902370
2023-03-15T02:20:42.919Z,50.902393
2023-03-15T02:21:42.945Z,50.902462
2023-03-15T02:22:42.902Z,50.902428
2023-03-15T02:23:42.897Z,50.902397
2023-03-15T02:24:43.404Z,50.902401
2023-03-15T02:25:42.905Z,50.902386
2023-03-15T02:26:42.905Z,50.902397
2023-03-15T02:27:42.867Z,50.902393
2023-03-15T02:28:42.862Z,50.902405
2023-03-15T02:29:42.849Z,50.902390
2023-03-15T02:30:42.841Z,50.902378
2023-03-15T02:31:42.869Z,50.902424
2023-03-15T02:32:42.853Z,50.902397
2023-03-15T02:33:42.813Z,50.902382
2023-03-15T02:34:42.816Z,50.902367
2023-03-15T02:35:42.864Z,50.902370
2023-03-15T02:36:42.817Z,50.902420
2023-03-15T02:37:42.788Z,50.902424
2023-03-15T02:38:42.782Z,50.902386
2023-03-15T02:39:42.829Z,50.902409
2023-03-15T02:40:42.773Z,50.902405
2023-03-15T02:41:42.778Z,50.902443
2023-03-15T02:42:42.752Z,50.902431
2023-03-15T02:43:42.743Z,50.902370
2023-03-15T02:44:42.745Z,50.902397
2023-03-15T02:45:42.824Z,50.902405
2023-03-15T02:46:42.748Z,50.902431
2023-03-15T02:47:42.710Z,50.902401
2023-03-15T02:48:42.701Z,50.902424
2023-03-15T02:49:42.698Z,50.902397
2023-03-15T02:50:42.690Z,50.902382
2023-03-15T02:51:42.729Z,50.902386
2023-03-15T02:52:42.676Z,50.902382
2023-03-15T02:53:42.660Z,50.902386
2023-03-15T02:54:42.655Z,50.902370
2023-03-15T02:55:42.659Z,50.902397
2023-03-15T02:56:42.783Z,50.902424
2023-03-15T02:57:42.641Z,50.902359
2023-03-15T02:58:42.629Z,50.902390
2023-03-15T02:59:42.615Z,50.902424
2023-03-15T03:00:42.610Z,50.902393
2023-03-15T03:01:42.629Z,50.902412
2023-03-15T03:02:42.624Z,50.902428
2023-03-15T03:03:42.588Z,50.902424
2023-03-15T03:04:42.581Z,50.902390
2023-03-15T03:05:42.567Z,50.902405
2023-03-15T03:06:44.093Z,50.902409
2023-03-15T03:07:42.553Z,50.902367
2023-03-15T03:08:42.570Z,50.902409
2023-03-15T03:09:42.542Z,50.902382
2023-03-15T03:10:42.649Z,50.902386
2023-03-15T03:11:42.557Z,50.902390
2023-03-15T03:12:42.533Z,50.902363
2023-03-15T03:13:42.590Z,50.902401
2023-03-15T03:14:42.519Z,50.902412
2023-03-15T03:15:44.004Z,50.902416
2023-03-15T03:16:42.635Z,50.902393
2023-03-15T03:17:42.558Z,50.902416
2023-03-15T03:18:42.475Z,50.902462
2023-03-15T03:19:42.467Z,50.902401
2023-03-15T03:20:42.452Z,50.902405
2023-03-15T03:21:42.476Z,50.902420
2023-03-15T03:22:42.435Z,50.902405
2023-03-15T03:23:42.461Z,50.902428
2023-03-15T03:24:42.431Z,50.902420
2023-03-15T03:25:42.420Z,50.902386
2023-03-15T03:26:42.407Z,50.902355
2023-03-15T03:27:42.431Z,50.902428
2023-03-15T03:28:42.454Z,50.902401
2023-03-15T03:29:42.393Z,50.902443
2023-03-15T03:30:42.411Z,50.902348
2023-03-15T03:31:42.379Z,50.902351
2023-03-15T03:32:42.713Z,50.902405
2023-03-15T03:33:42.368Z,50.902397
2023-03-15T03:34:42.346Z,50.902367
2023-03-15T03:35:42.380Z,50.902435
2023-03-15T03:36:42.335Z,50.902409
2023-03-15T03:37:42.370Z,50.902405
2023-03-15T03:38:42.355Z,50.902378
2023-03-15T03:39:42.315Z,50.902363
2023-03-15T03:40:42.296Z,50.902386
2023-03-15T03:41:42.304Z,50.902405
2023-03-15T03:42:42.323Z,50.902386
2023-03-15T03:43:42.366Z,50.902397
2023-03-15T03:44:42.293Z,50.902367
2023-03-15T03:45:42.278Z,50.902561
2023-03-15T03:46:42.260Z,50.902580
2023-03-15T03:47:42.283Z,50.902386
2023-03-15T03:48:42.243Z,50.902458
2023-03-15T03:49:42.224Z,50.902428
2023-03-15T03:50:43.229Z,50.902416
2023-03-15T03:51:42.215Z,50.902374
2023-03-15T03:52:42.250Z,50.902416
2023-03-15T03:53:42.226Z,50.902424
2023-03-15T03:54:42.193Z,50.902416
2023-03-15T03:55:42.185Z,50.902386
2023-03-15T03:56:42.194Z,50.902416
2023-03-15T03:57:42.214Z,50.902454
2023-03-15T03:58:42.168Z,50.902458
2023-03-15T03:59:42.188Z,50.902454
2023-03-15T04:00:42.154Z,50.902496
2023-03-15T04:01:42.167Z,50.902477
2023-03-15T04:02:42.187Z,50.902458
2023-03-15T04:03:42.125Z,50.902443
2023-03-15T04:04:42.213Z,50.902435
2023-03-15T04:05:42.129Z,50.902420
2023-03-15T04:06:42.098Z,50.902443
2023-03-15T04:07:42.149Z,50.902428
2023-03-15T04:08:42.081Z,50.902443
2023-03-15T04:09:42.093Z,50.902481
2023-03-15T04:10:42.057Z,50.902466
2023-03-15T04:11:42.052Z,50.902435
2023-03-15T04:12:42.108Z,50.902397
2023-03-15T04:13:42.038Z,50.902470
2023-03-15T04:14:42.025Z,50.902470
2023-03-15T04:15:42.047Z,50.902473
2023-03-15T04:16:42.021Z,50.902470
2023-03-15T04:17:42.065Z,50.902458
2023-03-15T04:18:42.014Z,50.902500
2023-03-15T04:19:42.013Z,50.902466
2023-03-15T04:20:41.990Z,50.902416
2023-03-15T04:21:41.969Z,50.902439
2023-03-15T04:22:42.019Z,50.902451
2023-03-15T04:23:41.984Z,50.902477
2023-03-15T04:24:41.971Z,50.902477
2023-03-15T04:25:41.947Z,50.902493
2023-03-15T04:26:41.945Z,50.902466
2023-03-15T04:27:41.961Z,50.902470
2023-03-15T04:28:41.961Z,50.902512
2023-03-15T04:29:41.932Z,50.902496
2023-03-15T04:30:41.923Z,50.902390
2023-03-15T04:31:41.936Z,50.902462
2023-03-15T04:32:42.027Z,50.902462
2023-03-15T04:33:42.808Z,50.902462
2023-03-15T04:34:41.926Z,50.902454
2023-03-15T04:35:41.918Z,50.902443
2023-03-15T04:36:41.871Z,50.902466
2023-03-15T04:37:41.895Z,50.902435
2023-03-15T04:38:41.854Z,50.902416
2023-03-15T04:39:41.882Z,50.902493
2023-03-15T04:40:41.844Z,50.902477
2023-03-15T04:41:41.833Z,50.902477
2023-03-15T04:42:41.824Z,50.902466
2023-03-15T04:43:41.820Z,50.902466
2023-03-15T04:44:41.844Z,50.902500
2023-03-15T04:45:41.806Z,50.902466
2023-03-15T04:46:41.831Z,50.902481
2023-03-15T04:47:41.787Z,50.902477
2023-03-15T04:48:41.784Z,50.902458
2023-03-15T04:49:41.817Z,50.902443
2023-03-15T04:50:41.767Z,50.902401
2023-03-15T04:51:41.762Z,50.902454
2023-03-15T04:52:41.756Z,50.902451
2023-03-15T04:53:41.734Z,50.902458
2023-03-15T04:54:41.760Z,50.902458
2023-03-15T04:55:41.741Z,50.902473
2023-03-15T04:56:41.720Z,50.902447
2023-03-15T04:57:41.711Z,50.902538
2023-03-15T04:58:41.707Z,50.902493
2023-03-15T04:59:41.717Z,50.902477
2023-03-15T05:00:41.762Z,50.902451
2023-03-15T05:01:41.747Z,50.902435
2023-03-15T05:02:41.908Z,50.902481
2023-03-15T05:03:41.662Z,50.902496
2023-03-15T05:04:41.683Z,50.902458
2023-03-15T05:05:41.658Z,50.902519
2023-03-15T05:06:41.642Z,50.902485
2023-03-15T05:07:41.635Z,50.902470
2023-03-15T05:08:41.633Z,50.902393
2023-03-15T05:09:41.642Z,50.902462
2023-03-15T05:10:41.616Z,50.902489
2023-03-15T05:11:41.605Z,50.902477
2023-03-15T05:12:41.603Z,50.902454
2023-03-15T05:13:41.611Z,50.902477
2023-03-15T05:14:41.986Z,50.902496
2023-03-15T05:15:41.569Z,50.902466
2023-03-15T05:16:41.644Z,50.902481
2023-03-15T05:17:41.565Z,50.902496
2023-03-15T05:18:41.592Z,50.902496
2023-03-15T05:19:41.625Z,50.902493
2023-03-15T05:20:41.537Z,50.902500
2023-03-15T05:21:41.525Z,50.902462
2023-03-15T05:22:41.527Z,50.902447
2023-03-15T05:23:41.545Z,50.902466
2023-03-15T05:24:41.575Z,50.902458
2023-03-15T05:25:41.524Z,50.902473
2023-03-15T05:26:41.489Z,50.902466
2023-03-15T05:27:41.487Z,50.902462
2023-03-15T05:28:41.472Z,50.902470
2023-03-15T05:29:41.497Z,50.902462
2023-03-15T05:30:41.454Z,50.902397
2023-03-15T05:31:41.492Z,50.902435
2023-03-15T05:32:41.471Z,50.902466
2023-03-15T05:33:41.438Z,50.902470
2023-03-15T05:34:41.433Z,50.902454
2023-03-15T05:35:41.495Z,50.902493
2023-03-15T05:36:41.425Z,50.902496
2023-03-15T05:37:41.411Z,50.902447
2023-03-15T05:38:41.397Z,50.902458
2023-03-15T05:39:41.520Z,50.902439
2023-03-15T05:40:41.388Z,50.902470
2023-03-15T05:41:41.389Z,50.902466
2023-03-15T05:42:41.416Z,50.902447
2023-03-15T05:43:41.366Z,50.902439
2023-03-15T05:44:41.363Z,50.902458
2023-03-15T05:45:41.489Z,50.902420
2023-03-15T05:46:41.362Z,50.902416
2023-03-15T05:47:41.339Z,50.902390
2023-03-15T05:48:41.327Z,50.902332
2023-03-15T05:49:41.934Z,50.902382
2023-03-15T05:50:41.340Z,50.902386
2023-03-15T05:51:41.383Z,50.902378
2023-03-15T05:52:41.300Z,50.902428
2023-03-15T05:53:41.312Z,50.902424
2023-03-15T05:54:41.281Z,50.902412
2023-03-15T05:55:41.455Z,50.902386
2023-03-15T05:56:42.266Z,50.902401
2023-03-15T05:57:41.278Z,50.902401
2023-03-15T05:58:41.292Z,50.902443
2023-03-15T05:59:41.268Z,50.902473
2023-03-15T06:00:41.260Z,50.902390
2023-03-15T06:01:41.222Z,50.902397
2023-03-15T06:02:41.219Z,50.902378
2023-03-15T06:03:41.357Z,50.902397
2023-03-15T06:04:41.223Z,50.902420
2023-03-15T06:05:41.217Z,50.902370
2023-03-15T06:06:41.197Z,50.902401
2023-03-15T06:07:41.197Z,50.902390
2023-03-15T06:08:41.201Z,50.902477
2023-03-15T06:09:41.168Z,50.902386
2023-03-15T06:10:41.177Z,50.902409
2023-03-15T06:11:41.152Z,50.902431
2023-03-15T06:12:41.145Z,50.902393
2023-03-15T06:13:41.128Z,50.902393
2023-03-15T06:14:41.132Z,50.902382
2023-03-15T06:15:41.726Z,50.902382
2023-03-15T06:16:41.211Z,50.902393
2023-03-15T06:17:41.105Z,50.902397
2023-03-15T06:18:41.100Z,50.902386
2023-03-15T06:19:41.088Z,50.902363
2023-03-15T06:20:41.129Z,50.902401
2023-03-15T06:21:41.100Z,50.902359
2023-03-15T06:22:41.064Z,50.902367
2023-03-15T06:23:41.196Z,50.902390
2023-03-15T06:24:41.069Z,50.902401
2023-03-15T06:25:41.081Z,50.902397
2023-03-15T06:26:41.053Z,50.902412
2023-03-15T06:27:41.034Z,50.902397
2023-03-15T06:28:41.023Z,50.902412
2023-03-15T06:29:41.020Z,50.902393
2023-03-15T06:30:41.102Z,50.902409
2023-03-15T06:31:41.003Z,50.902340
2023-03-15T06:32:41.014Z,50.902363
2023-03-15T06:33:40.994Z,50.902405
2023-03-15T06:34:40.982Z,50.902386
2023-03-15T06:35:41.039Z,50.902378
2023-03-15T06:36:41.726Z,50.902393
2023-03-15T06:37:40.971Z,50.902374
2023-03-15T06:38:40.940Z,50.902393
2023-03-15T06:39:40.938Z,50.902412
2023-03-15T06:40:40.971Z,50.902397
2023-03-15T06:41:40.923Z,50.902348
2023-03-15T06:42:40.912Z,50.902378
2023-03-15T06:43:40.906Z,50.902397
2023-03-15T06:44:40.900Z,50.902397
2023-03-15T06:45:40.917Z,50.902370
2023-03-15T06:46:40.883Z,50.902405
2023-03-15T06:47:40.879Z,50.902393
2023-03-15T06:48:40.871Z,50.902390
2023-03-15T06:49:40.865Z,50.902393
2023-03-15T06:50:47.269Z,50.902405
2023-03-15T06:51:42.853Z,50.902393
2023-03-15T06:52:40.843Z,50.902382
2023-03-15T06:53:40.843Z,50.902382
2023-03-15T06:54:40.824Z,50.902382
2023-03-15T06:55:40.847Z,50.902363
2023-03-15T06:56:40.816Z,50.902386
2023-03-15T06:57:42.925Z,50.902393
2023-03-15T06:58:40.796Z,50.902401
2023-03-15T06:59:40.846Z,50.902367
2023-03-15T07:00:40.802Z,50.902382
2023-03-15T07:01:40.791Z,50.902378
2023-03-15T07:02:40.812Z,50.902397
2023-03-15T07:03:40.760Z,50.902420
2023-03-15T07:04:40.782Z,50.902359
2023-03-15T07:05:40.785Z,50.902367
2023-03-15T07:06:40.812Z,50.902390
2023-03-15T07:07:40.724Z,50.902405
2023-03-15T07:08:40.722Z,50.902397
2023-03-15T07:09:40.715Z,50.902390
2023-03-15T07:10:40.735Z,50.902390
2023-03-15T07:11:40.694Z,50.902397
2023-03-15T07:12:41.285Z,50.902416
2023-03-15T07:13:40.675Z,50.902420
2023-03-15T07:14:41.685Z,50.902378
2023-03-15T07:15:40.714Z,50.902382
2023-03-15T07:16:40.700Z,50.902393
2023-03-15T07:17:40.669Z,50.902439
2023-03-15T07:18:40.667Z,50.902592
2023-03-15T07:19:50.206Z,50.902534
2023-03-15T07:20:42.698Z,50.902466
2023-03-15T07:21:40.632Z,50.902447
2023-03-15T07:22:40.633Z,50.902439
2023-03-15T07:23:40.621Z,50.902458
2023-03-15T07:24:40.615Z,50.902420
2023-03-15T07:25:53.900Z,50.902412
2023-03-15T07:26:42.594Z,50.902447
2023-03-15T07:27:40.654Z,50.902412
2023-03-15T07:28:40.574Z,50.902416
2023-03-15T07:29:41.571Z,50.902416
2023-03-15T07:30:40.614Z,50.902405
2023-03-15T07:31:40.556Z,50.902416
2023-03-15T07:32:40.643Z,50.902435
2023-03-15T07:33:40.554Z,50.902424
2023-03-15T07:34:40.533Z,50.902454
2023-03-15T07:35:40.600Z,50.902470
2023-03-15T07:36:40.529Z,50.902435
2023-03-15T07:37:44.391Z,50.902409
2023-03-15T07:38:43.181Z,50.902363
2023-03-15T07:39:41.491Z,50.902416
2023-03-15T07:40:40.511Z,50.902405
2023-03-15T07:41:40.478Z,50.902424
2023-03-15T07:42:40.490Z,50.902443
2023-03-15T07:43:40.468Z,50.902424
2023-03-15T07:44:40.476Z,50.902340
2023-03-15T07:45:40.482Z,50.902439
2023-03-15T07:46:40.509Z,50.902431
2023-03-15T07:47:40.433Z,50.902382
2023-03-15T07:48:40.431Z,50.902390
2023-03-15T07:49:40.415Z,50.902401
2023-03-15T07:50:42.248Z,50.902370
2023-03-15T07:51:42.743Z,50.902363
2023-03-15T07:52:43.304Z,50.902386
2023-03-15T07:53:41.830Z,50.902386
2023-03-15T07:54:42.240Z,50.902378
2023-03-15T07:55:44.238Z,50.902378
2023-03-15T07:56:42.747Z,50.902393
2023-03-15T07:57:42.759Z,50.902393
2023-03-15T07:58:42.742Z,50.902390
2023-03-15T07:59:43.242Z,50.902390
2023-03-15T08:00:41.969Z,50.902378
2023-03-15T08:01:42.277Z,50.902393
2023-03-15T08:02:41.031Z,50.902382
2023-03-15T08:03:41.740Z,50.902367
2023-03-15T08:04:42.831Z,50.902359
2023-03-15T08:05:43.747Z,50.902355
2023-03-15T08:06:41.243Z,50.902367
2023-03-15T08:07:43.301Z,50.902370
2023-03-15T08:08:41.821Z,50.902363
2023-03-15T08:09:41.829Z,50.902378
2023-03-15T08:10:41.166Z,50.902367
2023-03-15T08:11:43.480Z,50.902378
2023-03-15T08:12:43.754Z,50.902370
2023-03-15T08:13:42.272Z,50.902382
2023-03-15T08:14:40.805Z,50.902359
2023-03-15T08:15:41.794Z,50.902397
2023-03-15T08:16:43.337Z,50.902382
2023-03-15T08:17:43.834Z,50.902386
2023-03-15T08:18:41.821Z,50.902386
2023-03-15T08:19:42.258Z,50.902370
2023-03-15T08:20:41.254Z,50.902370
2023-03-15T08:21:41.332Z,50.902386
2023-03-15T08:22:41.747Z,50.902374
2023-03-15T08:23:41.750Z,50.902386
2023-03-15T08:24:41.957Z,50.902393
2023-03-15T08:25:41.748Z,50.902386
2023-03-15T08:26:42.817Z,50.902374
2023-03-15T08:27:43.321Z,50.902401
2023-03-15T08:28:42.319Z,50.902351
2023-03-15T08:29:41.246Z,50.902382
2023-03-15T08:30:41.751Z,50.902370
2023-03-15T08:31:47.784Z,50.902363
2023-03-15T08:32:40.254Z,50.902397
2023-03-15T08:33:41.991Z,50.902390
2023-03-15T08:34:41.826Z,50.902351
2023-03-15T08:35:40.174Z,50.902348
2023-03-15T08:36:40.986Z,50.902386
2023-03-15T08:37:41.752Z,50.902336
2023-03-15T08:38:42.748Z,50.902344
2023-03-15T08:39:41.861Z,50.902359
2023-03-15T08:40:43.291Z,50.902363
2023-03-15T08:41:42.253Z,50.902374
2023-03-15T08:42:40.761Z,50.902363
2023-03-15T08:43:40.090Z,50.902378
2023-03-15T08:44:42.769Z,50.902386
2023-03-15T08:45:59.759Z,50.902348
2023-03-15T08:46:42.293Z,50.902355
2023-03-15T08:47:40.076Z,50.902397
2023-03-15T08:48:40.022Z,50.902359
2023-03-15T08:49:42.746Z,50.902382
2023-03-15T08:50:43.246Z,50.902420
2023-03-15T08:51:42.753Z,50.902344
2023-03-15T08:52:42.306Z,50.902363
2023-03-15T08:53:41.084Z,50.902306
2023-03-15T08:54:42.826Z,50.902267
2023-03-15T08:55:42.792Z,50.902290
2023-03-15T08:56:43.258Z,50.902439
2023-03-15T08:57:42.955Z,50.902351
2023-03-15T08:58:41.475Z,50.902390
2023-03-15T08:59:40.769Z,50.902332
2023-03-15T09:00:40.478Z,50.902355
2023-03-15T09:01:43.822Z,50.902374
2023-03-15T09:02:42.348Z,50.902351
2023-03-15T09:03:42.393Z,50.902378
2023-03-15T09:04:41.287Z,50.902363
2023-03-15T09:05:41.325Z,50.902374
2023-03-15T09:06:42.262Z,50.902390
2023-03-15T09:07:40.933Z,50.902393
2023-03-15T09:08:41.452Z,50.902390
2023-03-15T09:09:42.274Z,50.902355
2023-03-15T09:10:40.850Z,50.902374
2023-03-15T09:11:41.775Z,50.902351
2023-03-15T09:12:40.768Z,50.902348
2023-03-15T09:13:41.287Z,50.902328
2023-03-15T09:14:42.771Z,50.902435
2023-03-15T09:15:40.474Z,50.902401
2023-03-15T09:16:41.903Z,50.902454
2023-03-15T09:17:42.776Z,50.902435
2023-03-15T09:18:40.775Z,50.902466
2023-03-15T09:19:42.343Z,50.902359
2023-03-15T09:20:40.768Z,50.902424
2023-03-15T09:21:42.271Z,50.902435
2023-03-15T09:22:42.755Z,50.902458
2023-03-15T09:24:04.755Z,50.902393
2023-03-15T09:24:42.757Z,50.902386
2023-03-15T09:25:50.758Z,50.902466
2023-03-15T09:26:39.793Z,50.902443
2023-03-15T09:27:39.749Z,50.902401
2023-03-15T09:28:42.353Z,50.902477
2023-03-15T09:29:39.763Z,50.902420
2023-03-15T09:30:40.292Z,50.902401
2023-03-15T09:31:40.259Z,50.902599
2023-03-15T09:32:41.800Z,50.902721
2023-03-15T09:33:41.437Z,50.902699
2023-03-15T09:34:43.760Z,50.902699
2023-03-15T09:35:42.826Z,50.902699
2023-03-15T09:36:42.261Z,50.902699
2023-03-15T09:37:41.762Z,50.902699
2023-03-15T09:38:41.822Z,50.902699
2023-03-15T09:39:40.804Z,50.902699
2023-03-15T09:40:43.260Z,50.902699
2023-03-15T09:41:42.310Z,50.902275
2023-03-15T09:42:42.260Z,50.902592
2023-03-15T09:43:40.947Z,50.902489
2023-03-15T09:44:40.333Z,50.902481
2023-03-15T09:45:41.389Z,50.902454
2023-03-15T09:46:42.508Z,50.902451
2023-03-15T09:47:43.279Z,50.902447
2023-03-15T09:48:43.325Z,50.902473
2023-03-15T09:49:42.263Z,50.902454
2023-03-15T09:50:42.318Z,50.902451
2023-03-15T09:51:41.357Z,50.902435
2023-03-15T09:52:41.766Z,50.902431
2023-03-15T09:53:41.771Z,50.902443
2023-03-15T09:54:39.538Z,50.902420
2023-03-15T09:55:41.269Z,50.902348
2023-03-15T09:56:41.336Z,50.902344
2023-03-15T09:57:41.776Z,50.902435
2023-03-15T09:58:40.994Z,50.902424
2023-03-15T09:59:42.496Z,50.902431
2023-03-15T10:00:41.770Z,50.902435
2023-03-15T10:01:39.600Z,50.902401
2023-03-15T10:02:40.768Z,50.902382
2023-03-15T10:03:41.374Z,50.902382
2023-03-15T10:04:41.849Z,50.902405
2023-03-15T10:05:40.092Z,50.902401
2023-03-15T10:06:41.368Z,50.902431
2023-03-15T10:07:40.328Z,50.902386
2023-03-15T10:08:42.901Z,50.902344
2023-03-15T10:09:43.781Z,50.902325
2023-03-15T10:10:40.771Z,50.902409
2023-03-15T10:11:42.270Z,50.902481
2023-03-15T10:12:40.834Z,50.902393
2023-03-15T10:13:41.773Z,50.902386
2023-03-15T10:14:40.339Z,50.902386
2023-03-15T10:15:42.297Z,50.902374
2023-03-15T10:16:42.778Z,50.902370
2023-03-15T10:17:40.097Z,50.902355
2023-03-15T10:18:40.291Z,50.902359
2023-03-15T10:19:40.832Z,50.902378
2023-03-15T10:20:42.285Z,50.902378
2023-03-15T10:21:41.774Z,50.902416
2023-03-15T10:22:40.846Z,50.902451
2023-03-15T10:23:40.811Z,50.902386
2023-03-15T10:24:41.007Z,50.902382
2023-03-15T10:25:41.283Z,50.902355
2023-03-15T10:26:42.777Z,50.902363
2023-03-15T10:27:41.854Z,50.902386
2023-03-15T10:28:41.274Z,50.902336
2023-03-15T10:29:40.780Z,50.902401
2023-03-15T10:30:40.839Z,50.902370
2023-03-15T10:31:44.498Z,50.902321
2023-03-15T10:32:42.867Z,50.902351
2023-03-15T10:33:40.769Z,50.902451
2023-03-15T10:34:39.846Z,50.902431
2023-03-15T10:35:41.287Z,50.902458
2023-03-15T10:36:43.270Z,50.902416
2023-03-15T10:37:43.415Z,50.902401
2023-03-15T10:38:42.270Z,50.902409
2023-03-15T10:39:42.291Z,50.902420
2023-03-15T10:40:39.237Z,50.902386
2023-03-15T10:41:43.777Z,50.902397
2023-03-15T10:42:42.011Z,50.902416
2023-03-15T10:43:39.780Z,50.902401
2023-03-15T10:44:40.781Z,50.902466
2023-03-15T10:45:40.795Z,50.902443
2023-03-15T10:46:40.902Z,50.902412
2023-03-15T10:47:45.241Z,50.902428
2023-03-15T10:48:43.771Z,50.902420
2023-03-15T10:49:41.777Z,50.902431
2023-03-15T10:50:39.864Z,50.902401
2023-03-15T10:51:40.837Z,50.902431
2023-03-15T10:52:39.791Z,50.902424
2023-03-15T10:53:42.278Z,50.902420
2023-03-15T10:54:40.969Z,50.902401
2023-03-15T10:55:40.815Z,50.902397
2023-03-15T10:56:41.846Z,50.902401
2023-03-15T10:57:42.794Z,50.902386
2023-03-15T10:58:41.485Z,50.902424
2023-03-15T10:59:40.849Z,50.902378
2023-03-15T11:00:41.781Z,50.902412
2023-03-15T11:01:41.356Z,50.902416
2023-03-15T11:02:39.803Z,50.902412
2023-03-15T11:03:40.790Z,50.902390
2023-03-15T11:04:40.830Z,50.902390
2023-03-15T11:05:41.277Z,50.902401
2023-03-15T11:06:41.815Z,50.902431
2023-03-15T11:07:40.801Z,50.902401
2023-03-15T11:08:42.296Z,50.902405
2023-03-15T11:09:40.849Z,50.902424
2023-03-15T11:10:39.960Z,50.902405
2023-03-15T11:11:40.776Z,50.902424
2023-03-15T11:12:41.278Z,50.902401
2023-03-15T11:13:39.460Z,50.902405
2023-03-15T11:14:42.298Z,50.902397
2023-03-15T11:15:39.775Z,50.902416
2023-03-15T11:16:40.797Z,50.902424
2023-03-15T11:17:40.900Z,50.902416
2023-03-15T11:18:51.275Z,50.902416
2023-03-15T11:19:42.287Z,50.902405
2023-03-15T11:20:41.356Z,50.902393
2023-03-15T11:21:42.780Z,50.902412
2023-03-15T11:22:41.336Z,50.902428
2023-03-15T11:23:41.281Z,50.902416
2023-03-15T11:24:41.415Z,50.902428